Weather at Adolfo Suárez Madrid–Barajas Airport

Public forecast

Using degrees Celsius for public forecast. Weather courtesy of forecast.io.

Current aviation weather report (METAR) for Adolfo Suárez Madrid–Barajas Airport

Retrieved 2021/10/22 05:30 UTC (20 minutes ago):

LEMD 220530Z 01006KT 340V050 9999 BKN060 12/05 Q1019 NOSIG

Aviation forecast (TAF) for Adolfo Suárez Madrid–Barajas Airport

Forecast is more than 6 hours old.

Retrieved 2021/10/21 18:27 UTC (11 hours ago):

TAF LEMD 211700Z 2118/2224 03008KT 9999 FEW045 TX21/2215Z TN08/2207Z PROB40 TEMPO 2209/2218 03015G25KT